Time;durP1;ratioP1;P1;durP2;ratioP2;P2;SDS_P1;SDS_P2;PMS_P1;PMS_P2;Temp;Humidity;BMP_temperature;BMP_pressure;BME280_temperature;BME280_humidity;BME280_pressure;Samples;Min_cycle;Max_cycle;Signal;HPM_P1;HPM_P2
2022/01/07 00:02:07;;;;;;;;;;;2.70;96.50;;;;;;5019445;28;19983;-69
2022/01/07 00:04:35;;;;;;;;;;;2.60;96.60;;;;;;5025508;28;19935;-70
2022/01/07 00:07:02;;;;;;;;;;;2.60;96.60;;;;;;5020535;28;19933;-70
2022/01/07 00:09:29;;;;;;;;;;;2.60;96.60;;;;;;5016187;28;20384;-70
2022/01/07 00:11:57;;;;;;;;;;;2.60;96.60;;;;;;5024537;28;19933;-70
2022/01/07 00:14:24;;;;;;;;;;;2.60;96.60;;;;;;5022207;28;20687;-70
2022/01/07 00:16:50;;;;;;;;;;;2.50;96.90;;;;;;5016656;28;19933;-69
2022/01/07 00:19:19;;;;;;;;;;;2.50;96.60;;;;;;5020903;28;19929;-70
2022/01/07 00:21:46;;;;;;;;;;;2.50;96.70;;;;;;5025189;28;19951;-71
2022/01/07 00:24:12;;;;;;;;;;;2.50;96.70;;;;;;5023590;28;20006;-70
2022/01/07 00:26:39;;;;;;;;;;;2.50;96.80;;;;;;5023982;28;20351;-69
2022/01/07 00:29:06;;;;;;;;;;;2.50;96.70;;;;;;5018572;28;20427;-69
2022/01/07 00:31:33;;;;;;;;;;;2.40;96.80;;;;;;5022017;28;20489;-69
2022/01/07 00:34:00;;;;;;;;;;;2.50;96.80;;;;;;5024965;28;19929;-70
2022/01/07 00:36:26;;;;;;;;;;;2.50;96.80;;;;;;5023036;28;19929;-70
2022/01/07 00:38:53;;;;;;;;;;;2.40;96.80;;;;;;5020820;28;19929;-69
2022/01/07 00:41:19;;;;;;;;;;;2.40;96.80;;;;;;5017868;28;20588;-69
2022/01/07 00:43:48;;;;;;;;;;;2.40;96.80;;;;;;5022539;28;19929;-70
2022/01/07 00:46:16;;;;;;;;;;;2.40;96.80;;;;;;5016381;28;19929;-70
2022/01/07 00:48:42;;;;;;;;;;;2.40;96.90;;;;;;5022736;28;19960;-69
2022/01/07 00:51:09;;;;;;;;;;;2.40;96.90;;;;;;5025468;28;19932;-69
2022/01/07 00:53:35;;;;;;;;;;;2.30;96.80;;;;;;5024370;28;20452;-69
2022/01/07 00:56:02;;;;;;;;;;;2.30;96.80;;;;;;5021997;28;20384;-69
2022/01/07 00:58:28;;;;;;;;;;;2.30;96.80;;;;;;5018229;28;20372;-69
2022/01/07 01:00:55;;;;;;;;;;;2.30;96.80;;;;;;5021370;28;19940;-69
2022/01/07 01:03:23;;;;;;;;;;;2.30;96.80;;;;;;5023543;28;20433;-71
2022/01/07 01:05:49;;;;;;;;;;;2.30;96.80;;;;;;5023940;28;19933;-70
2022/01/07 01:08:16;;;;;;;;;;;2.20;96.80;;;;;;5018738;28;20011;-70
2022/01/07 01:10:43;;;;;;;;;;;2.20;96.80;;;;;;5023147;28;19933;-69
2022/01/07 01:13:09;;;;;;;;;;;2.20;96.80;;;;;;5024688;28;20372;-70
2022/01/07 01:15:36;;;;;;;;;;;2.20;96.70;;;;;;5017319;28;19929;-69
2022/01/07 01:18:02;;;;;;;;;;;2.20;96.80;;;;;;5022295;28;20340;-70
2022/01/07 01:20:31;;;;;;;;;;;2.20;96.70;;;;;;5023269;28;20007;-71
2022/01/07 01:22:58;;;;;;;;;;;2.10;96.70;;;;;;5024774;28;19928;-70
2022/01/07 01:25:24;;;;;;;;;;;2.10;96.70;;;;;;5022128;28;20467;-69
2022/01/07 01:27:51;;;;;;;;;;;2.10;96.70;;;;;;5021029;28;19940;-70
2022/01/07 01:30:18;;;;;;;;;;;2.10;96.70;;;;;;5021200;28;19933;-71
2022/01/07 01:32:45;;;;;;;;;;;2.10;96.80;;;;;;5024558;28;19925;-68
2022/01/07 01:35:12;;;;;;;;;;;2.10;96.80;;;;;;5022923;28;19928;-69
2022/01/07 01:37:40;;;;;;;;;;;2.10;96.80;;;;;;5023552;28;19936;-68
2022/01/07 01:40:07;;;;;;;;;;;2.10;96.90;;;;;;5019624;28;19929;-69
2022/01/07 01:42:34;;;;;;;;;;;2.10;96.80;;;;;;5023349;28;19932;-70
2022/01/07 01:45:01;;;;;;;;;;;2.10;96.90;;;;;;5031065;28;19933;-70
2022/01/07 01:47:27;;;;;;;;;;;2.00;96.80;;;;;;5018366;28;21636;-70
2022/01/07 01:49:54;;;;;;;;;;;2.00;96.80;;;;;;5022875;28;20332;-70
2022/01/07 01:52:20;;;;;;;;;;;2.00;96.80;;;;;;5023804;28;19939;-70
2022/01/07 01:54:48;;;;;;;;;;;2.00;96.90;;;;;;5019856;28;20319;-70
2022/01/07 01:57:15;;;;;;;;;;;2.00;96.90;;;;;;5022807;28;20431;-71
2022/01/07 01:59:42;;;;;;;;;;;1.90;96.80;;;;;;5017593;28;19988;-70
2022/01/07 02:02:09;;;;;;;;;;;1.90;96.80;;;;;;5020936;28;19929;-69
2022/01/07 02:04:37;;;;;;;;;;;1.90;96.80;;;;;;5022169;28;19925;-70
2022/01/07 02:07:03;;;;;;;;;;;1.90;96.70;;;;;;5021911;28;20392;-70
2022/01/07 02:09:35;;;;;;;;;;;1.90;96.70;;;;;;5021082;28;19929;-71
2022/01/07 02:12:03;;;;;;;;;;;1.90;96.70;;;;;;5022934;28;19929;-70
2022/01/07 02:14:30;;;;;;;;;;;1.90;96.70;;;;;;5018509;28;19929;-70
2022/01/07 02:17:03;;;;;;;;;;;1.90;96.70;;;;;;5018175;28;19933;-70
2022/01/07 02:19:32;;;;;;;;;;;1.90;96.80;;;;;;5019537;28;20292;-70
2022/01/07 02:21:58;;;;;;;;;;;1.80;96.80;;;;;;5030913;28;19940;-69
2022/01/07 02:24:25;;;;;;;;;;;1.80;96.80;;;;;;5022662;28;19937;-70
2022/01/07 02:26:52;;;;;;;;;;;1.80;96.80;;;;;;5026888;28;19941;-71
2022/01/07 02:29:18;;;;;;;;;;;1.80;96.70;;;;;;5021492;28;19929;-70
2022/01/07 02:31:45;;;;;;;;;;;1.80;96.80;;;;;;5021312;28;19979;-70
2022/01/07 02:34:12;;;;;;;;;;;1.80;96.70;;;;;;5023121;28;19940;-70
2022/01/07 02:36:39;;;;;;;;;;;1.80;96.70;;;;;;5021719;28;19936;-68
2022/01/07 02:39:06;;;;;;;;;;;1.80;96.70;;;;;;5021067;28;19933;-69
2022/01/07 02:41:32;;;;;;;;;;;1.80;96.70;;;;;;5019055;28;19956;-70
2022/01/07 02:43:59;;;;;;;;;;;1.80;96.70;;;;;;5024159;28;19936;-69
2022/01/07 02:46:26;;;;;;;;;;;1.70;96.70;;;;;;5020184;28;19936;-69
2022/01/07 02:48:52;;;;;;;;;;;1.70;96.70;;;;;;5026751;28;19955;-70
2022/01/07 02:51:19;;;;;;;;;;;1.70;96.70;;;;;;5023555;28;19952;-69
2022/01/07 02:53:47;;;;;;;;;;;1.70;96.70;;;;;;5021844;28;19944;-70
2022/01/07 02:56:13;;;;;;;;;;;1.70;96.80;;;;;;5022104;28;20422;-68
2022/01/07 02:58:40;;;;;;;;;;;1.70;96.80;;;;;;5024268;28;20356;-69
2022/01/07 03:01:07;;;;;;;;;;;1.70;96.80;;;;;;5021762;28;20182;-68
2022/01/07 03:03:34;;;;;;;;;;;1.70;96.80;;;;;;5026577;28;20018;-70
2022/01/07 03:06:00;;;;;;;;;;;1.70;96.80;;;;;;5025851;28;19929;-70
2022/01/07 03:08:27;;;;;;;;;;;1.70;96.80;;;;;;5022870;28;19937;-71
2022/01/07 03:10:55;;;;;;;;;;;1.70;96.90;;;;;;5024452;28;19932;-69
2022/01/07 03:13:21;;;;;;;;;;;1.70;96.90;;;;;;5025033;28;19933;-69
2022/01/07 03:15:48;;;;;;;;;;;1.70;96.90;;;;;;5021157;28;19933;-70
2022/01/07 03:18:14;;;;;;;;;;;1.70;96.90;;;;;;5025202;28;20320;-71
2022/01/07 03:20:42;;;;;;;;;;;1.60;96.90;;;;;;5028132;28;20405;-70
2022/01/07 03:23:09;;;;;;;;;;;1.60;96.90;;;;;;5026299;28;19928;-70
2022/01/07 03:25:36;;;;;;;;;;;1.60;96.90;;;;;;5024915;28;19933;-69
2022/01/07 03:28:04;;;;;;;;;;;1.70;97.00;;;;;;5022252;28;19929;-69
2022/01/07 03:30:31;;;;;;;;;;;1.70;97.00;;;;;;5020354;28;19936;-69
2022/01/07 03:32:58;;;;;;;;;;;1.60;97.00;;;;;;5026306;28;20352;-70
2022/01/07 03:35:24;;;;;;;;;;;1.60;97.00;;;;;;5025267;28;20649;-68
2022/01/07 03:37:51;;;;;;;;;;;1.60;97.00;;;;;;5025818;28;19933;-70
2022/01/07 03:40:19;;;;;;;;;;;1.60;97.00;;;;;;5021863;28;19955;-70
2022/01/07 03:42:45;;;;;;;;;;;1.60;97.00;;;;;;5024304;28;20690;-69
2022/01/07 03:45:13;;;;;;;;;;;1.60;97.00;;;;;;5024176;28;19939;-70
2022/01/07 03:47:40;;;;;;;;;;;1.70;97.00;;;;;;5024765;28;20289;-70
2022/01/07 03:50:08;;;;;;;;;;;1.60;97.00;;;;;;5024500;28;19936;-69
2022/01/07 03:52:35;;;;;;;;;;;1.60;97.00;;;;;;5028076;28;19987;-70
2022/01/07 03:55:01;;;;;;;;;;;1.60;97.00;;;;;;5021544;28;19933;-70
2022/01/07 03:57:28;;;;;;;;;;;1.70;97.10;;;;;;5021587;28;19937;-68
2022/01/07 03:59:54;;;;;;;;;;;1.60;97.10;;;;;;5023343;28;19936;-69
2022/01/07 04:02:22;;;;;;;;;;;1.70;97.10;;;;;;5019955;28;19929;-70
2022/01/07 04:04:49;;;;;;;;;;;1.70;97.10;;;;;;5024676;28;19929;-70
2022/01/07 04:07:15;;;;;;;;;;;1.70;97.10;;;;;;5025133;28;19929;-70
2022/01/07 04:09:42;;;;;;;;;;;1.70;97.10;;;;;;5017342;28;19933;-70
2022/01/07 04:12:09;;;;;;;;;;;1.70;97.10;;;;;;5021271;28;19933;-71
2022/01/07 04:14:35;;;;;;;;;;;1.70;97.10;;;;;;5022531;28;19944;-70
2022/01/07 04:17:02;;;;;;;;;;;1.70;97.10;;;;;;5019679;28;19929;-70
2022/01/07 04:19:30;;;;;;;;;;;1.70;97.10;;;;;;5023879;28;19929;-71
2022/01/07 04:21:56;;;;;;;;;;;1.70;97.10;;;;;;5026213;28;20397;-70
2022/01/07 04:24:23;;;;;;;;;;;1.70;97.10;;;;;;5024843;28;20304;-70
2022/01/07 04:26:49;;;;;;;;;;;1.70;97.10;;;;;;5027814;28;19929;-71
2022/01/07 04:29:16;;;;;;;;;;;1.70;97.10;;;;;;5020454;28;19929;-70
2022/01/07 04:31:43;;;;;;;;;;;1.70;97.10;;;;;;5023489;28;19929;-70
2022/01/07 04:34:10;;;;;;;;;;;1.70;97.10;;;;;;5024598;28;19933;-70
2022/01/07 04:36:37;;;;;;;;;;;1.70;97.10;;;;;;5023975;28;19936;-68
2022/01/07 04:39:04;;;;;;;;;;;1.70;97.10;;;;;;5021259;28;19929;-70
2022/01/07 04:41:31;;;;;;;;;;;1.70;97.10;;;;;;5018701;28;19929;-69
2022/01/07 04:43:57;;;;;;;;;;;1.70;97.10;;;;;;5022072;28;19933;-70
2022/01/07 04:46:24;;;;;;;;;;;1.70;97.00;;;;;;5020804;28;19928;-69
2022/01/07 04:48:50;;;;;;;;;;;1.70;97.10;;;;;;5022314;28;19933;-68
2022/01/07 04:51:17;;;;;;;;;;;1.80;97.10;;;;;;5020400;28;20336;-70
2022/01/07 04:53:44;;;;;;;;;;;1.70;97.10;;;;;;5023312;28;19929;-69
2022/01/07 04:56:11;;;;;;;;;;;1.70;97.00;;;;;;5023527;28;20007;-71
2022/01/07 04:58:37;;;;;;;;;;;1.70;97.00;;;;;;5023937;28;19933;-68
2022/01/07 05:01:04;;;;;;;;;;;1.70;97.00;;;;;;5017970;28;19933;-69
2022/01/07 05:03:31;;;;;;;;;;;1.70;97.00;;;;;;5024902;28;19933;-70
2022/01/07 05:06:10;;;;;;;;;;;1.70;97.10;;;;;;5023518;28;19925;-70
2022/01/07 05:08:36;;;;;;;;;;;1.70;97.10;;;;;;5016469;28;19933;-68
2022/01/07 05:11:04;;;;;;;;;;;1.70;97.10;;;;;;5022196;28;19933;-69
2022/01/07 05:13:31;;;;;;;;;;;1.70;97.10;;;;;;5022090;28;19933;-69
2022/01/07 05:15:57;;;;;;;;;;;1.70;97.10;;;;;;5014651;28;19933;-70
2022/01/07 05:18:24;;;;;;;;;;;1.70;97.10;;;;;;5024225;28;19944;-71
2022/01/07 05:20:50;;;;;;;;;;;1.70;97.10;;;;;;5024450;28;19925;-68
2022/01/07 05:23:18;;;;;;;;;;;1.70;97.10;;;;;;5023624;28;20392;-70
2022/01/07 05:25:45;;;;;;;;;;;1.70;97.10;;;;;;5027096;28;19925;-70
2022/01/07 05:28:13;;;;;;;;;;;1.70;97.10;;;;;;5021669;28;19925;-71
2022/01/07 05:30:39;;;;;;;;;;;1.70;97.10;;;;;;5021654;28;20301;-68
2022/01/07 05:33:06;;;;;;;;;;;1.70;97.20;;;;;;5023897;28;19940;-69
2022/01/07 05:35:33;;;;;;;;;;;1.70;97.20;;;;;;5014556;28;19998;-70
2022/01/07 05:37:59;;;;;;;;;;;1.70;97.20;;;;;;5020124;28;19956;-70
2022/01/07 05:40:26;;;;;;;;;;;1.70;97.20;;;;;;5021752;28;19932;-68
2022/01/07 05:42:52;;;;;;;;;;;1.70;97.20;;;;;;5022700;28;19936;-70
2022/01/07 05:45:20;;;;;;;;;;;1.70;97.20;;;;;;5018353;28;19940;-69
2022/01/07 05:47:47;;;;;;;;;;;1.70;97.20;;;;;;5019004;28;19940;-69
2022/01/07 05:50:13;;;;;;;;;;;1.70;97.50;;;;;;5021100;28;19949;-69
2022/01/07 05:52:40;;;;;;;;;;;1.70;97.20;;;;;;5024121;28;20019;-69
2022/01/07 05:55:07;;;;;;;;;;;1.70;97.20;;;;;;5019216;28;19940;-69
2022/01/07 05:57:35;;;;;;;;;;;1.70;97.20;;;;;;5019454;28;20413;-69
2022/01/07 06:00:02;;;;;;;;;;;1.70;97.20;;;;;;5019406;28;19933;-70
2022/01/07 06:02:30;;;;;;;;;;;1.70;97.20;;;;;;5019630;28;20022;-71
2022/01/07 06:04:56;;;;;;;;;;;1.70;97.20;;;;;;5016422;28;20051;-71
2022/01/07 06:07:23;;;;;;;;;;;1.70;97.50;;;;;;5021763;28;20435;-69
2022/01/07 06:09:50;;;;;;;;;;;1.70;97.20;;;;;;5021491;28;19929;-69
2022/01/07 06:12:16;;;;;;;;;;;1.70;97.20;;;;;;5021601;28;20412;-70
2022/01/07 06:14:43;;;;;;;;;;;1.70;97.20;;;;;;5018839;28;20319;-72
2022/01/07 06:17:11;;;;;;;;;;;1.70;97.30;;;;;;5020955;28;19929;-69
2022/01/07 06:19:39;;;;;;;;;;;1.70;97.20;;;;;;5019831;28;19936;-70
2022/01/07 06:22:06;;;;;;;;;;;1.70;97.20;;;;;;5019770;28;19928;-68
2022/01/07 06:24:32;;;;;;;;;;;1.70;97.20;;;;;;5027788;28;20424;-70
2022/01/07 06:26:59;;;;;;;;;;;1.70;97.20;;;;;;5028399;28;19936;-71
2022/01/07 06:29:26;;;;;;;;;;;1.70;97.30;;;;;;5025917;28;19932;-70
2022/01/07 06:31:52;;;;;;;;;;;1.70;97.30;;;;;;5024975;28;19936;-70
2022/01/07 06:34:20;;;;;;;;;;;1.70;97.30;;;;;;5020234;28;19936;-70
2022/01/07 06:36:48;;;;;;;;;;;1.70;97.30;;;;;;5024962;28;19984;-69
2022/01/07 06:39:15;;;;;;;;;;;1.70;97.30;;;;;;5023427;28;19943;-69
2022/01/07 06:41:41;;;;;;;;;;;1.60;97.00;;;;;;5023630;28;20359;-70
2022/01/07 06:44:08;;;;;;;;;;;1.60;96.60;;;;;;5024021;28;20631;-68
2022/01/07 06:46:34;;;;;;;;;;;1.50;96.70;;;;;;5019679;28;19959;-69
2022/01/07 06:49:01;;;;;;;;;;;1.50;96.90;;;;;;5027130;28;20029;-68
2022/01/07 06:51:27;;;;;;;;;;;1.50;97.00;;;;;;5028371;28;19929;-67
2022/01/07 06:53:55;;;;;;;;;;;1.50;97.10;;;;;;5024031;28;19974;-68
2022/01/07 06:56:22;;;;;;;;;;;1.50;97.10;;;;;;5022860;28;20393;-68
2022/01/07 06:58:49;;;;;;;;;;;1.50;97.10;;;;;;5026413;28;19933;-68
2022/01/07 07:01:15;;;;;;;;;;;1.50;97.10;;;;;;5021341;28;20412;-68
2022/01/07 07:03:42;;;;;;;;;;;1.50;97.10;;;;;;5024355;28;19929;-76
2022/01/07 07:06:09;;;;;;;;;;;1.60;97.20;;;;;;5025140;28;19929;-76
2022/01/07 07:08:36;;;;;;;;;;;1.50;97.10;;;;;;5026306;28;20341;-76
2022/01/07 07:11:04;;;;;;;;;;;1.60;97.10;;;;;;5024624;28;20462;-76
2022/01/07 07:13:30;;;;;;;;;;;1.60;97.10;;;;;;5023507;28;19932;-76
2022/01/07 07:15:57;;;;;;;;;;;1.50;97.10;;;;;;5017612;28;19999;-76
2022/01/07 07:18:23;;;;;;;;;;;1.50;97.10;;;;;;5024538;28;19933;-77
2022/01/07 07:20:50;;;;;;;;;;;1.50;97.10;;;;;;5016482;28;19932;-76
2022/01/07 07:23:16;;;;;;;;;;;1.50;97.10;;;;;;5025283;28;19929;-76
2022/01/07 07:25:43;;;;;;;;;;;1.50;97.10;;;;;;5029494;28;19933;-76
2022/01/07 07:28:11;;;;;;;;;;;1.50;97.10;;;;;;5018737;28;19929;-77
2022/01/07 07:30:40;;;;;;;;;;;1.60;97.10;;;;;;5018983;28;19940;-76
2022/01/07 07:33:29;;;;;;;;;;;1.60;97.10;;;;;;5026171;28;19933;-76
2022/01/07 07:38:41;;;;;;;;;;;1.50;97.10;;;;;;5022345;28;19936;-76
2022/01/07 07:41:10;;;;;;;;;;;1.50;97.10;;;;;;5024442;28;20416;-75
2022/01/07 07:43:38;;;;;;;;;;;1.50;97.10;;;;;;5024020;28;19991;-75
2022/01/07 07:46:04;;;;;;;;;;;1.60;97.10;;;;;;5025967;28;19936;-75
2022/01/07 07:48:31;;;;;;;;;;;1.50;97.10;;;;;;5022134;28;20055;-75
2022/01/07 07:50:58;;;;;;;;;;;1.50;97.10;;;;;;5025441;28;19936;-76
2022/01/07 07:53:24;;;;;;;;;;;1.60;97.10;;;;;;5022263;28;19940;-76
2022/01/07 07:55:53;;;;;;;;;;;1.50;97.10;;;;;;5015471;28;20454;-77
2022/01/07 07:58:20;;;;;;;;;;;1.60;97.10;;;;;;5022389;28;19925;-75
2022/01/07 08:00:48;;;;;;;;;;;1.50;97.10;;;;;;5019455;28;19929;-75
2022/01/07 08:03:14;;;;;;;;;;;1.60;97.10;;;;;;5024249;28;19933;-75
2022/01/07 08:05:41;;;;;;;;;;;1.60;97.10;;;;;;5023850;28;19937;-75
2022/01/07 08:08:07;;;;;;;;;;;1.50;97.10;;;;;;5022217;28;19930;-75
2022/01/07 08:10:34;;;;;;;;;;;1.50;97.10;;;;;;5017857;28;20411;-77
2022/01/07 08:16:01;;;;;;;;;;;1.60;97.10;;;;;;5109560;27;20133;-76
2022/01/07 08:18:28;;;;;;;;;;;1.50;97.10;;;;;;5080126;28;19938;-79
2022/01/07 08:20:55;;;;;;;;;;;1.50;97.00;;;;;;5079419;28;19939;-78
2022/01/07 08:23:22;;;;;;;;;;;1.50;97.10;;;;;;5081475;28;19935;-79
2022/01/07 08:25:48;;;;;;;;;;;1.50;97.10;;;;;;5076802;28;19924;-80
2022/01/07 08:28:16;;;;;;;;;;;1.50;97.00;;;;;;5078954;28;19943;-80
2022/01/07 08:31:23;;;;;;;;;;;1.50;97.10;;;;;;5076354;28;19982;-80
2022/01/07 08:36:35;;;;;;;;;;;1.60;97.10;;;;;;5078742;28;20038;-78
2022/01/07 08:39:01;;;;;;;;;;;1.50;97.00;;;;;;5076291;28;19971;-79
2022/01/07 08:41:29;;;;;;;;;;;1.60;97.10;;;;;;5079841;28;20456;-79
2022/01/07 08:43:56;;;;;;;;;;;1.60;97.00;;;;;;5072172;28;19928;-78
2022/01/07 08:46:23;;;;;;;;;;;1.50;97.00;;;;;;5084021;27;19927;-79
2022/01/07 08:48:51;;;;;;;;;;;1.60;97.00;;;;;;5080044;28;19932;-79
2022/01/07 08:51:18;;;;;;;;;;;1.60;97.00;;;;;;5081139;28;19928;-80
2022/01/07 08:53:44;;;;;;;;;;;1.60;96.90;;;;;;5081002;28;19998;-79
2022/01/07 08:56:11;;;;;;;;;;;1.60;96.90;;;;;;5073274;28;19937;-80
2022/01/07 08:58:38;;;;;;;;;;;1.60;96.90;;;;;;5078987;28;19932;-79
2022/01/07 09:01:05;;;;;;;;;;;1.60;96.90;;;;;;5073368;28;19936;-80
2022/01/07 09:03:31;;;;;;;;;;;1.60;96.90;;;;;;5076927;28;19936;-80
2022/01/07 09:05:59;;;;;;;;;;;1.60;96.90;;;;;;5076912;28;19932;-79
2022/01/07 09:08:26;;;;;;;;;;;1.60;96.90;;;;;;5069630;28;19939;-80
2022/01/07 09:10:52;;;;;;;;;;;1.70;96.90;;;;;;5074976;28;19928;-80
2022/01/07 09:13:20;;;;;;;;;;;1.70;96.90;;;;;;5079557;28;19924;-79
2022/01/07 09:15:47;;;;;;;;;;;1.70;96.90;;;;;;5074413;28;19929;-80
2022/01/07 09:18:14;;;;;;;;;;;1.70;96.80;;;;;;5079269;28;20410;-80
2022/01/07 09:20:42;;;;;;;;;;;1.70;96.80;;;;;;5072948;28;19929;-81
2022/01/07 09:23:11;;;;;;;;;;;1.70;96.80;;;;;;5080775;28;19935;-78
2022/01/07 09:25:37;;;;;;;;;;;1.80;96.80;;;;;;5077458;28;19929;-80
2022/01/07 09:28:05;;;;;;;;;;;1.70;96.80;;;;;;5066113;28;19935;-79
2022/01/07 09:30:31;;;;;;;;;;;1.80;96.80;;;;;;5066187;28;20100;-79
2022/01/07 09:32:58;;;;;;;;;;;1.80;96.80;;;;;;5066044;28;19933;-79
2022/01/07 09:35:24;;;;;;;;;;;1.80;96.70;;;;;;5066793;28;20312;-79
2022/01/07 09:37:51;;;;;;;;;;;1.80;96.60;;;;;;5065798;28;19928;-80
2022/01/07 09:40:20;;;;;;;;;;;1.90;96.50;;;;;;5066155;28;19951;-80
2022/01/07 09:42:56;;;;;;;;;;;1.90;96.50;;;;;;5061693;28;21845;-79
2022/01/07 09:45:24;;;;;;;;;;;1.90;96.40;;;;;;5066421;28;19928;-78
2022/01/07 09:47:50;;;;;;;;;;;1.90;96.50;;;;;;5066985;28;19935;-81
2022/01/07 09:50:17;;;;;;;;;;;1.90;96.40;;;;;;5061731;28;19939;-80
2022/01/07 09:52:43;;;;;;;;;;;1.90;96.50;;;;;;5064794;28;19929;-80
2022/01/07 09:55:10;;;;;;;;;;;1.90;96.40;;;;;;5061304;28;19933;-79
2022/01/07 09:57:38;;;;;;;;;;;1.90;96.40;;;;;;5059819;28;20328;-78
2022/01/07 10:00:06;;;;;;;;;;;1.90;96.40;;;;;;5066096;28;19935;-79
2022/01/07 10:02:33;;;;;;;;;;;2.00;96.50;;;;;;5066890;28;19932;-79
2022/01/07 10:05:13;;;;;;;;;;;1.90;96.40;;;;;;5065688;28;19939;-79
2022/01/07 10:07:40;;;;;;;;;;;2.00;96.50;;;;;;5064587;28;20791;-79
2022/01/07 10:10:08;;;;;;;;;;;1.90;96.40;;;;;;5066806;28;20080;-81
2022/01/07 10:12:48;;;;;;;;;;;2.00;96.50;;;;;;5067289;28;19932;-80
2022/01/07 10:15:17;;;;;;;;;;;2.00;96.50;;;;;;5062458;28;19989;-81
2022/01/07 10:17:54;;;;;;;;;;;2.00;96.50;;;;;;5063791;28;19929;-80
2022/01/07 10:20:22;;;;;;;;;;;2.00;96.50;;;;;;5062450;28;19960;-80
2022/01/07 10:22:51;;;;;;;;;;;2.00;96.60;;;;;;5066850;28;19935;-80
2022/01/07 10:25:21;;;;;;;;;;;2.00;96.60;;;;;;5063238;28;19928;-81
2022/01/07 10:27:47;;;;;;;;;;;2.00;96.60;;;;;;5066848;28;19933;-80
2022/01/07 10:30:15;;;;;;;;;;;2.00;96.70;;;;;;5065571;28;20351;-81
2022/01/07 10:32:43;;;;;;;;;;;2.00;96.70;;;;;;5071885;28;19932;-80
2022/01/07 10:35:12;;;;;;;;;;;2.10;96.80;;;;;;5071278;28;19929;-79
2022/01/07 10:37:46;;;;;;;;;;;2.10;96.80;;;;;;5070833;28;20611;-79
2022/01/07 10:40:23;;;;;;;;;;;2.10;96.80;;;;;;5072353;28;19975;-80
2022/01/07 10:42:51;;;;;;;;;;;2.10;96.80;;;;;;5073474;28;20176;-79
2022/01/07 10:45:17;;;;;;;;;;;2.10;96.90;;;;;;5068822;28;20474;-79
2022/01/07 10:47:49;;;;;;;;;;;2.10;96.90;;;;;;5072830;28;19928;-79
2022/01/07 10:50:16;;;;;;;;;;;2.10;96.90;;;;;;5071844;28;19935;-80
2022/01/07 10:52:43;;;;;;;;;;;2.10;96.90;;;;;;5063653;28;19955;-79
2022/01/07 10:55:10;;;;;;;;;;;2.10;97.00;;;;;;5072394;28;19929;-81
2022/01/07 10:57:38;;;;;;;;;;;2.10;97.00;;;;;;5068921;28;20400;-80
2022/01/07 11:00:06;;;;;;;;;;;2.10;97.10;;;;;;5068946;28;19928;-82
2022/01/07 11:02:33;;;;;;;;;;;2.20;97.10;;;;;;5068812;28;19936;-80
2022/01/07 11:05:01;;;;;;;;;;;2.20;97.20;;;;;;5068938;28;20073;-77
2022/01/07 11:07:28;;;;;;;;;;;2.20;97.20;;;;;;5068025;28;19933;-81
2022/01/07 11:09:56;;;;;;;;;;;2.20;97.20;;;;;;5070551;28;20016;-79
2022/01/07 11:12:24;;;;;;;;;;;2.20;97.20;;;;;;5071315;28;19974;-79
2022/01/07 11:14:50;;;;;;;;;;;2.20;97.20;;;;;;5066268;28;20011;-79
2022/01/07 11:17:21;;;;;;;;;;;2.20;97.20;;;;;;5070397;28;19932;-81
2022/01/07 11:19:51;;;;;;;;;;;2.20;97.20;;;;;;5076450;28;19924;-79
2022/01/07 11:22:19;;;;;;;;;;;2.20;97.20;;;;;;5068906;28;19933;-79
2022/01/07 11:24:47;;;;;;;;;;;2.20;97.20;;;;;;5065615;28;20386;-80
2022/01/07 11:27:15;;;;;;;;;;;2.20;97.20;;;;;;5064706;28;20621;-81
2022/01/07 11:29:46;;;;;;;;;;;2.30;97.20;;;;;;5066466;28;19928;-79
2022/01/07 11:32:29;;;;;;;;;;;2.30;97.20;;;;;;5073789;28;20074;-80
2022/01/07 11:34:56;;;;;;;;;;;2.30;97.50;;;;;;5065752;28;20027;-80
2022/01/07 11:37:37;;;;;;;;;;;2.30;97.20;;;;;;5066000;28;19935;-78
2022/01/07 11:40:04;;;;;;;;;;;2.30;97.20;;;;;;5063369;28;19935;-78
2022/01/07 11:42:40;;;;;;;;;;;2.30;97.20;;;;;;5064397;28;19940;-80
2022/01/07 11:45:29;;;;;;;;;;;2.30;97.10;;;;;;5064571;28;19935;-78
2022/01/07 11:47:56;;;;;;;;;;;2.30;97.10;;;;;;5067036;28;19939;-79
2022/01/07 11:50:23;;;;;;;;;;;2.30;97.10;;;;;;5061490;28;19937;-77
2022/01/07 11:52:57;;;;;;;;;;;2.40;97.10;;;;;;5063245;28;19972;-78
2022/01/07 11:55:26;;;;;;;;;;;2.40;97.10;;;;;;5069849;28;19928;-79
2022/01/07 11:57:54;;;;;;;;;;;2.40;97.10;;;;;;5069436;28;19979;-79
2022/01/07 12:00:39;;;;;;;;;;;2.40;97.10;;;;;;5063229;28;20407;-81
2022/01/07 12:03:06;;;;;;;;;;;2.40;97.10;;;;;;5072908;28;19940;-80
2022/01/07 12:05:33;;;;;;;;;;;2.40;97.00;;;;;;5062160;28;19940;-80
2022/01/07 12:08:01;;;;;;;;;;;2.40;97.10;;;;;;5067272;28;19935;-80
2022/01/07 12:10:27;;;;;;;;;;;2.50;97.10;;;;;;5061450;28;19928;-80
2022/01/07 12:12:59;;;;;;;;;;;2.40;97.00;;;;;;5066117;28;19928;-80
2022/01/07 12:15:26;;;;;;;;;;;2.50;97.00;;;;;;5055641;28;20441;-79
2022/01/07 12:17:52;;;;;;;;;;;2.50;97.00;;;;;;5064808;28;19935;-80
2022/01/07 12:20:38;;;;;;;;;;;2.50;97.00;;;;;;5064763;28;19928;-78
2022/01/07 12:23:06;;;;;;;;;;;2.50;97.10;;;;;;5065908;28;19928;-80
2022/01/07 12:25:32;;;;;;;;;;;2.50;97.10;;;;;;5062569;28;19932;-80
2022/01/07 12:28:01;;;;;;;;;;;2.50;97.10;;;;;;5067406;28;19940;-80
2022/01/07 12:30:27;;;;;;;;;;;2.60;97.10;;;;;;5063196;28;19959;-80
2022/01/07 12:32:58;;;;;;;;;;;2.60;97.10;;;;;;5069001;28;19936;-76
2022/01/07 12:35:28;;;;;;;;;;;2.60;97.10;;;;;;5063264;28;20412;-78
2022/01/07 12:37:55;;;;;;;;;;;2.60;97.10;;;;;;5060012;28;20304;-80
2022/01/07 12:40:23;;;;;;;;;;;2.60;97.00;;;;;;5057920;28;19928;-81
2022/01/07 12:42:50;;;;;;;;;;;2.60;97.00;;;;;;5067412;28;19928;-80
2022/01/07 12:45:17;;;;;;;;;;;2.60;97.00;;;;;;5061625;28;19929;-79
2022/01/07 12:47:44;;;;;;;;;;;2.70;97.10;;;;;;5064390;28;19929;-80
2022/01/07 12:50:11;;;;;;;;;;;2.70;97.00;;;;;;5061072;28;19932;-79
2022/01/07 12:52:38;;;;;;;;;;;2.70;97.00;;;;;;5055454;28;19935;-80
2022/01/07 12:55:07;;;;;;;;;;;2.70;97.10;;;;;;5051840;28;20412;-79
2022/01/07 12:57:36;;;;;;;;;;;2.70;97.10;;;;;;5055903;28;20384;-80
2022/01/07 13:00:10;;;;;;;;;;;2.70;97.00;;;;;;5063038;28;19928;-79
2022/01/07 13:02:38;;;;;;;;;;;2.70;97.10;;;;;;5046473;28;19929;-81
2022/01/07 13:05:15;;;;;;;;;;;2.70;97.10;;;;;;5046799;28;19947;-80
2022/01/07 13:07:42;;;;;;;;;;;2.70;97.00;;;;;;5041118;28;19976;-80
2022/01/07 13:10:10;;;;;;;;;;;2.70;97.00;;;;;;5047376;28;20448;-78
2022/01/07 13:12:38;;;;;;;;;;;2.70;97.00;;;;;;5041462;28;19939;-80
2022/01/07 13:15:05;;;;;;;;;;;2.70;97.00;;;;;;5048712;28;20407;-79
2022/01/07 13:17:32;;;;;;;;;;;2.80;97.10;;;;;;5063281;28;19951;-80
2022/01/07 13:19:59;;;;;;;;;;;2.80;97.10;;;;;;5067643;28;19936;-79
2022/01/07 13:22:26;;;;;;;;;;;2.80;97.10;;;;;;5069418;28;20395;-81
2022/01/07 13:24:53;;;;;;;;;;;2.80;97.00;;;;;;5065573;28;19978;-79
2022/01/07 13:27:20;;;;;;;;;;;2.80;97.00;;;;;;5065971;28;19929;-79
2022/01/07 13:29:48;;;;;;;;;;;2.80;97.00;;;;;;5063697;28;19928;-80
2022/01/07 13:32:20;;;;;;;;;;;2.80;97.00;;;;;;5061306;28;19929;-80
2022/01/07 13:34:47;;;;;;;;;;;2.80;97.00;;;;;;5062473;28;19929;-80
2022/01/07 13:37:15;;;;;;;;;;;2.80;97.00;;;;;;5061421;28;19929;-79
2022/01/07 13:39:43;;;;;;;;;;;2.80;97.00;;;;;;5062505;28;19935;-78
2022/01/07 13:42:11;;;;;;;;;;;2.90;97.00;;;;;;5064798;28;20051;-78
2022/01/07 13:44:52;;;;;;;;;;;2.80;96.90;;;;;;5065042;28;19946;-78
2022/01/07 13:47:20;;;;;;;;;;;2.90;97.00;;;;;;5061628;28;19932;-79
2022/01/07 13:49:47;;;;;;;;;;;2.80;96.90;;;;;;5063310;28;19928;-80
2022/01/07 13:52:13;;;;;;;;;;;2.90;97.00;;;;;;5066663;28;19928;-77
2022/01/07 13:54:41;;;;;;;;;;;2.90;96.90;;;;;;5065603;28;19936;-79
2022/01/07 13:57:09;;;;;;;;;;;2.90;96.90;;;;;;5059883;28;19928;-78
2022/01/07 13:59:43;;;;;;;;;;;2.90;96.90;;;;;;5060870;28;19939;-79
2022/01/07 14:02:15;;;;;;;;;;;2.90;96.90;;;;;;5057878;28;19947;-79
2022/01/07 14:04:42;;;;;;;;;;;2.90;96.90;;;;;;5061712;28;19937;-79
2022/01/07 14:07:26;;;;;;;;;;;2.90;96.90;;;;;;5060100;28;19933;-78
2022/01/07 14:10:12;;;;;;;;;;;2.90;96.80;;;;;;5057540;28;19935;-79
2022/01/07 14:12:45;;;;;;;;;;;2.90;96.80;;;;;;5061786;28;19940;-78
2022/01/07 14:15:12;;;;;;;;;;;2.90;96.80;;;;;;5058844;28;20317;-78
2022/01/07 14:17:41;;;;;;;;;;;2.90;96.80;;;;;;5061805;28;19932;-78
2022/01/07 14:20:08;;;;;;;;;;;2.90;96.80;;;;;;5060918;28;19929;-78
2022/01/07 14:22:39;;;;;;;;;;;2.90;96.80;;;;;;5061067;28;19936;-78
2022/01/07 14:25:06;;;;;;;;;;;2.90;96.80;;;;;;5064382;28;20424;-77
2022/01/07 14:27:33;;;;;;;;;;;3.00;96.80;;;;;;5063154;28;19932;-77
2022/01/07 14:30:01;;;;;;;;;;;2.90;96.80;;;;;;5062636;28;19982;-77
2022/01/07 14:32:27;;;;;;;;;;;2.90;96.80;;;;;;5061605;28;19940;-77
2022/01/07 14:34:57;;;;;;;;;;;3.00;96.80;;;;;;5061095;28;19925;-78
2022/01/07 14:37:25;;;;;;;;;;;3.00;96.80;;;;;;5061753;28;19928;-77
2022/01/07 14:39:51;;;;;;;;;;;3.00;96.80;;;;;;5058516;28;19932;-76
2022/01/07 14:42:18;;;;;;;;;;;3.00;96.80;;;;;;5064002;28;19935;-77
2022/01/07 14:44:44;;;;;;;;;;;3.00;96.80;;;;;;5062974;28;19936;-78